Cushman Dam, Washington
Current Conditions -  °F | °C
As of 4:15 PM on Friday 21 Nov 2014 (Local Time) from KSHN Reporting Station
Moderate Rain Moderate Rain  
Wind Chill: 46°   Ceiling: 500
Heat Index: 48°   Visibility: 2mi
Dew Point: 47°   Wind: 5mph
Humidity: 96%   Direction: 10°N
Pressure: 29.3"   Gusts: NA
Location:  47.4532°N, 123.173°W
Report Text: KSHN 220015Z AUTO 01004KT 2SM RA BR BKN005 BKN017 OVC024 09/08 A2930 RMK AO2 P0012 T00890083
Loading
Personal Weather Stations






























Interactive Weather Map New forecast layout! Learn more

10-Day Weather Forecast

Advertisements
Track Severe Weather on mobile